Gulf Breeze, FL

2:12 PM CDT on July 29, 2015 (GMT -0500)
Sawgrass at Tiger Point | | Change Station
CLOSE
Current Station
Personal Weather Station
Location: Gulf Breeze, FL
Elevation: 45 ft
Nearby Weather Stations
Active Advisory: Heat Advisory

Elev 45 ft 30.38 °N, 87.06 °W | Updated 9 seconds ago

Partly Cloudy
Partly Cloudy
88.1 °F
Feels Like 107 °F
N
7.0
Wind Variable Wind from WNW
Gusts 12.0 mph

Today
High -- | Low -- °F
--% Chance of Precip.
Yesterday
High -- | Low -- °F
Precip. -- in
6:04 AM 7:44 PM
Waxing Gibbous, 96% visible
Pressure 29.94 in
Visibility 10.0 miles
Clouds Few 5000 ft
Scattered Clouds 6500 ft
Scattered Clouds 8000 ft
Heat Index 107 °F
Dew Point 81 °F
Humidity 80%
Rainfall 0.00 in
Snow Depth Not available.
UV 1.1 out of 12
Pollen 3.30 out of 12
Air Quality Not available.
Flu Activity Not available.
METAR KPNS 291853Z 36006KT 10SM FEW050 SCT065 SCT080 36/23 A2993 RMK AO2 LTG DSNT E AND SE AND W SLP137 T03610228

More Conditions Fewer Conditions

Pressure 29.94 in
Visibility 10.0 miles
Clouds Few 5000 ft
Scattered Clouds 6500 ft
Scattered Clouds 8000 ft
Heat Index 107 °F
Dew Point 81 °F
Humidity 80%
Rainfall 0.00 in
Snow Depth Not available.
UV 1.1 out of 12
Pollen 3.30 out of 12
Air Quality Not available.
Flu Activity Not available.
METAR KPNS 291853Z 36006KT 10SM FEW050 SCT065 SCT080 36/23 A2993 RMK AO2 LTG DSNT E AND SE AND W SLP137 T03610228

More Conditions Fewer Conditions

10-Day Weather Forecast

×

Almanac

Astronomy

Jul. 29, 2015 Rise Set
Actual Time
Civil Twilight
Nautical Twilight
Astronomical Twilight
Moon
Length of Visible Light
Length of Day
Tomorrow will be .
, % of the Moon is Illuminated

Today's Extremes

State Highs State Lows

Community

WunderPhotos

Upload Photos

1,842,152 photos uploaded!

WunderBlogs® & News

Nearby

Air Quality

  Air Quality AQ Index Pollutant
Not available.

Snow Depth

Station Depth Elevation

Earthquake Activity

City Distance Mag. Time & Date
Minimum magnitude displayed is 2.5.

Coastal Water Temperatures

Place Temperature

Stations

Nearby Weather Stations

Station Location Temp. Windchill Dew Point Humidity Wind Precip. Elev Updated Type
                   
Heat Advisory
Statement as of 12:09 PM CDT on July 29, 2015

... Heat advisory remains in effect until 7 PM CDT this evening...

* temperature... afternoon highs between 93 and 98 degrees at
most locations.

* Heat index... maximum readings between 108 and 112 degrees.

* Impacts... hot temperatures and high humidity could lead to
heat related illnesses.

Precautionary/preparedness actions...

A heat advisory means that a period of hot temperatures is
expected. The combination of hot temperatures and high humidity
will combine to create a situation in which heat illnesses are
possible. Drink plenty of fluids... stay in an air-conditioned
room... stay out of the sun... and check up on relatives and
neighbors.